Nearby METAR Reports

 

KCXP - Carson City, Nevada, USA
Distance from station: WSW 2mi, 3km
Updated: Sat, Jun-24-2017 4:55pm PDT
Clear
Clear
 Wind from NNW
Wind: NNW 10 mph , 17 km/h
Temperature: 95°F , 35°C
Dew Point: 23°F , -5°C
Humidity: 7%
Barometer: 30.10 inHg , 1019.3 hPa
Clouds: Clear
Visibility: 10 miles , 16 km
2017/06/24 23:55 KCXP 242355Z AUTO 34009KT 280V350 10SM CLR 35/M05 A3010 RMK AO2
KRNO - Reno, Nevada, USA
Distance from station: N 21mi, 34km
Updated: Sat, Jun-24-2017 4:55pm PDT
Few Clouds
Few Clouds
 Wind from varies
Wind: varies 3 mph , 6 km/h
Temperature: 97°F , 36°C
Dew Point: 28°F , -2°C
Humidity: 9%
Barometer: 30.08 inHg , 1018.6 hPa
Clouds: Few Clouds
Visibility: 10 miles , 16 km
Cloud details: Few Clouds 9000 ft
Few Clouds 20000 ft
2017/06/24 23:55 KRNO 242355Z VRB03KT 10SM FEW090 FEW200 36/M02 A3008 RMK AO2 SLP118 TCU DSNT SW-W T03611022 10372 20317 58016
 
KTRK - Truckee Tahoe, California, USA
Distance from station: WNW 24mi, 38km
Updated: Sat, Jun-24-2017 4:45pm PDT
Clear
Clear
 Wind from calm
Wind: Calm
Clouds: Clear
Visibility: 10 miles , 16 km
2017/06/24 23:45 KTRK 242345Z 00000KT 10SM SKC 31/0 A3022 RMK TCU DSNT W
KTVL - South Lake Tahoe, California, USA
Distance from station: SW 26mi, 42km
Updated: Sat, Jun-24-2017 3:53pm PDT
Clear
Clear
 Wind from NNE
Wind: NNE 9 mph , 15 km/h
Temperature: 84°F , 29°C
Dew Point: 43°F , 6°C
Humidity: 23%
Barometer: 30.26 inHg , 1024.7 hPa
Clouds: Clear
Visibility: 10 miles , 16 km
2017/06/24 22:53 KTVL 242253Z AUTO 02008KT 10SM CLR 29/06 A3026 RMK AO2 SLP178 T02940056
 
KRTS - Reno/Stead, Nevada, USA
Distance from station: NNW 34mi, 54km
Updated: Sat, Jun-24-2017 4:55pm PDT
Clear
Clear
 Wind from S
Wind: S 9 mph , 15 km/h
Temperature: 91°F , 33°C
Dew Point: 27°F , -3°C
Humidity: 10%
Barometer: 30.14 inHg , 1020.7 hPa
Clouds: Clear
Visibility: 10 miles , 16 km
2017/06/24 23:55 KRTS 242355Z AUTO 18008KT 10SM CLR 33/M03 A3014 RMK AO2
KBLU - Emigrant Gap, California, USA
Distance from station: W 54mi, 87km
Updated: Sat, Jun-24-2017 4:52pm PDT
Clear
Clear
 Wind from varies
Wind: varies 6 mph , 9 km/h
Temperature: 84°F , 29°C
Heat Index: 83°F , 28°C
Dew Point: 57°F , 14°C
Humidity: 40%
Barometer: 30.21 inHg , 1023 hPa
Clouds: Clear
Visibility: 10 miles , 16 km
2017/06/24 23:52 KBLU 242352Z AUTO VRB05KT 10SM CLR 29/14 A3021 RMK AO2 SLP103 T02890139 10311 20283 58003 TSNO
 
KNFL - Fallon Nas, Nevada, USA
Distance from station: ENE 56mi, 89km
Updated: Sat, Jun-24-2017 4:56pm PDT
Few Clouds
Few Clouds
 Wind from WNW
Wind: WNW 6 mph , 9 km/h
Temperature: 97°F , 36°C
Dew Point: 19°F , -7°C
Humidity: 6%
Barometer: 30.05 inHg , 1017.6 hPa
Clouds: Few Clouds
Visibility: 10 miles , 16 km
Cloud details: Few Clouds 10000 ft
Few Clouds 20000 ft
2017/06/24 23:56 KNFL 242356Z 30005KT 10SM FEW100 FEW200 36/M07 A3005 RMK AO2 SLP144 TCU DSNT S-W T03611072 10372 20300 58017 $
KBAN - Bridgeport(Mcmwt, California, USA
Distance from station: S 60mi, 96km
Updated: Sat, Jun-24-2017 4:52pm PDT
Mostly cloudy
Mostly cloudy
 
Temperature: 82°F , 28°C
Dew Point: 30°F , -1°C
Humidity: 15%
Barometer: 30.28 inHg , 1025.4 hPa
Clouds: Mostly cloudy
Visibility: 9 miles , 14 km
Cloud details: Mostly cloudy 11000 ft
2017/06/24 23:52 KBAN 242352Z AUTO 9SM BKN110 28/M01 A3028 RMK AO2 PRESRR SLP153 T02781006 10317 20272 53001 $
 
KPVF - Placerville, California, USA
Distance from station: WSW 66mi, 105km
Updated: Sat, Jun-24-2017 4:35pm PDT
Clear
Clear
 Wind from SSW
Wind: SSW 3 mph , 6 km/h
Temperature: 91°F , 33°C
Dew Point: 59°F , 15°C
Humidity: 34%
Barometer: 30.01 inHg , 1016.3 hPa
Clouds: Clear
Visibility: 10 miles , 16 km
2017/06/24 23:35 KPVF 242335Z AUTO 21003KT 10SM CLR 33/15 A3001 RMK AO1
KGOO - Grass Valley, California, USA
Distance from station: W 70mi, 112km
Updated: Fri, May-05-2017 6:55am PDT
NOT Current
Clear
Clear
 Wind from SE
Wind: SE 3 mph , 6 km/h
Temperature: 59°F , 15°C
Dew Point: 46°F , 8°C
Humidity: 63%
Barometer: 29.93 inHg , 1013.5 hPa
Clouds: Clear
Visibility: 10 miles , 16 km
2017/05/05 13:55 KGOO 051355Z AUTO 14003KT 10SM CLR 15/08 A2993 RMK AO1
 
KAUN - Auburn Muni, California, USA
Distance from station: WSW 76mi, 123km
Updated: Sat, Jun-24-2017 4:55pm PDT
Clear
Clear
 Wind from WSW
Wind: WSW 6 mph , 9 km/h
Temperature: 93°F , 34°C
Dew Point: 61°F , 16°C
Humidity: 34%
Barometer: 29.91 inHg , 1012.9 hPa
Clouds: Clear
Visibility: 10 miles , 16 km
2017/06/24 23:55 KAUN 242355Z AUTO 24005KT 10SM CLR 34/16 A2991 RMK AO1
KLOL - Lovelock, Nevada, USA
Distance from station: NE 85mi, 137km
Updated: Sat, Jun-24-2017 4:53pm PDT
Clear
Clear
 Wind from NE
Wind: NE 6 mph , 9 km/h
Temperature: 99°F , 37°C
Dew Point: 25°F , -4°C
Humidity: 7%
Barometer: 30.05 inHg , 1017.6 hPa
Clouds: Clear
Visibility: 10 miles , 16 km
2017/06/24 23:53 KLOL 242353Z AUTO 04005KT 10SM CLR 37/M04 A3005 RMK AO2 SLP127 T03671044 10367 20306 58019 TSNO
 
KLHM - Lincoln, California, USA
Distance from station: WSW 91mi, 146km
Updated: Sat, Jun-24-2017 4:55pm PDT
Clear
Clear
 Wind from SSW
Wind: SSW 7 mph , 11 km/h
Temperature: 100°F , 38°C
Dew Point: 52°F , 11°C
Humidity: 20%
Barometer: 29.78 inHg , 1008.5 hPa
Clouds: Clear
Visibility: 10 miles , 16 km
2017/06/24 23:55 KLHM 242355Z AUTO 20006KT 10SM CLR 38/11 A2978 RMK AO1
KBAB - Beale Afb/Marysv, California, USA
Distance from station: W 92mi, 148km
Updated: Sat, Jun-24-2017 4:58pm PDT
Clear
Clear
 Wind from SSW
Wind: SSW 9 mph , 15 km/h
Temperature: 99°F , 37°C
Dew Point: 66°F , 19°C
Humidity: 35%
Barometer: 29.77 inHg , 1008.1 hPa
Clouds: Clear
Visibility: 10 miles , 16 km
2017/06/24 23:58 KBAB 242358Z AUTO 20008KT 10SM CLR 37/19 A2977 RMK AO2 SLP083 T03710186 10376 20300 57014 $
 
KMHR - Mather Field, California, USA
Distance from station: WSW 97mi, 156km
Updated: Sat, Jun-24-2017 4:45pm PDT
Clear
Clear
 Wind from SSW
Wind: SSW 12 mph , 19 km/h
Temperature: 95°F , 35°C
Dew Point: 61°F , 16°C
Humidity: 32%
Barometer: 29.81 inHg , 1009.5 hPa
Clouds: Clear
Visibility: 10 miles , 16 km
2017/06/24 23:45 KMHR 242345Z 21010KT 10SM SKC 35/16 A2981
KMCC - Mcclellan Afb, California, USA
Distance from station: WSW 99mi, 159km
Updated: Sat, Jun-24-2017 4:55pm PDT
Clear
Clear
 Wind from SSW
Wind: SSW 13 mph , 20 km/h
Temperature: 95°F , 35°C
Dew Point: 59°F , 15°C
Humidity: 30%
Barometer: 29.82 inHg , 1009.8 hPa
Clouds: Clear
Visibility: 10 miles , 16 km
2017/06/24 23:55 KMCC 242355Z AUTO 20011KT 10SM CLR 35/15 A2982 RMK AO2
 
KMYV - Marysville, California, USA
Distance from station: W 100mi, 161km
Updated: Sat, Jun-24-2017 4:53pm PDT
Clear
Clear
 Wind from SSE
Wind: SSE 7 mph , 11 km/h
Temperature: 100°F , 38°C
Dew Point: 64°F , 18°C
Humidity: 31%
Barometer: 29.79 inHg , 1008.8 hPa
Clouds: Clear
Visibility: 10 miles , 16 km
2017/06/24 23:53 KMYV 242353Z AUTO 16006KT 10SM CLR 38/18 A2979 RMK AO2 SLP090 T03780178 10383 20289 57015